createdAt,value
2018-08-03T00:52:07.427Z,22.71
2018-08-03T00:57:44.517Z,22.46
2018-08-03T01:28:05.455Z,22.16
2018-08-03T01:44:25.166Z,22.03
2018-08-03T01:48:03.684Z,22.01
2018-08-03T02:08:27.047Z,22.09
2018-08-03T02:21:33.919Z,22.03
2018-08-03T02:31:27.885Z,21.97
2018-08-03T02:37:10.196Z,21.73
2018-08-03T02:43:04.704Z,21.46
2018-08-03T02:45:54.730Z,21.39
2018-08-03T02:48:30.110Z,21.43
2018-08-03T02:54:02.653Z,21.53
2018-08-03T02:56:49.599Z,21.59
2018-08-03T03:10:37.134Z,21.51
2018-08-03T03:13:32.988Z,21.52
2018-08-03T03:16:10.817Z,21.53
2018-08-03T03:18:53.761Z,21.71
2018-08-03T03:34:21.998Z,21.64
2018-08-03T03:37:10.076Z,21.72
2018-08-03T03:40:06.136Z,21.72
2018-08-03T03:43:02.416Z,21.73
2018-08-03T03:45:39.373Z,21.60
2018-08-03T03:48:11.404Z,21.57
2018-08-03T03:50:44.639Z,21.45
2018-08-03T03:53:17.356Z,21.39
2018-08-03T03:55:51.314Z,21.34
2018-08-03T04:26:39.200Z,21.58
2018-08-03T04:29:38.797Z,21.54
2018-08-03T04:32:31.628Z,21.58
2018-08-03T04:35:47.056Z,21.61
2018-08-03T04:38:40.179Z,21.63
2018-08-03T04:41:29.366Z,21.76
2018-08-03T04:44:36.754Z,21.78
2018-08-03T04:47:07.964Z,21.90
2018-08-03T04:53:15.949Z,21.97
2018-08-03T04:55:49.094Z,22.02
2018-08-03T04:58:23.094Z,22.02
2018-08-03T05:03:35.392Z,22.08
2018-08-03T05:06:07.299Z,22.12
2018-08-03T05:08:45.237Z,22.23
2018-08-03T05:11:21.383Z,22.39
2018-08-03T05:14:01.053Z,22.42
2018-08-03T05:16:35.708Z,22.53
2018-08-03T05:19:12.033Z,22.65
2018-08-03T05:21:51.679Z,22.61
2018-08-03T05:24:44.481Z,22.83
2018-08-03T05:27:33.909Z,22.96
2018-08-03T05:33:26.574Z,22.94
2018-08-03T05:36:04.909Z,23.01
2018-08-03T05:39:05.194Z,23.08
2018-08-03T05:41:42.587Z,23.16
2018-08-03T05:47:04.611Z,23.28
2018-08-03T05:49:45.117Z,23.33
2018-08-03T05:52:42.829Z,23.38
2018-08-03T05:55:43.009Z,23.42
2018-08-03T05:58:25.463Z,23.57
2018-08-03T06:01:08.936Z,23.62
2018-08-03T06:03:57.207Z,23.71
2018-08-03T06:06:40.626Z,23.76
2018-08-03T06:09:31.308Z,23.77
2018-08-03T06:12:14.400Z,23.89
2018-08-03T06:15:03.530Z,23.94
2018-08-03T06:20:25.637Z,24.03
2018-08-03T06:23:07.019Z,24.16
2018-08-03T06:25:51.013Z,24.21
2018-08-03T06:35:02.018Z,24.28
2018-08-03T06:41:07.615Z,24.53
2018-08-03T06:43:50.316Z,24.73
2018-08-03T08:04:53.822Z,30.57
2018-08-03T08:07:24.114Z,31.37
2018-08-03T08:10:18.965Z,31.76
2018-08-03T08:13:28.027Z,31.80
2018-08-03T08:16:23.211Z,32.12
2018-08-03T08:19:03.155Z,31.14
2018-08-03T08:27:06.742Z,31.63
2018-08-03T08:55:29.864Z,32.76
2018-08-03T08:58:25.674Z,32.36
2018-08-03T09:11:37.597Z,28.54
2018-08-03T09:35:27.635Z,29.51
2018-08-03T10:00:24.081Z,30.80
2018-08-03T10:26:54.350Z,30.04
2018-08-03T10:29:43.831Z,30.03
2018-08-03T10:35:40.648Z,30.62
2018-08-03T10:57:33.100Z,30.90
2018-08-03T11:54:56.801Z,27.80
2018-08-03T11:57:31.495Z,27.85
2018-08-03T12:00:04.024Z,27.72
2018-08-03T12:02:35.566Z,27.67
2018-08-03T12:05:08.202Z,27.82
2018-08-03T12:07:40.777Z,28.01
2018-08-03T12:10:13.870Z,28.19
2018-08-03T12:12:47.366Z,28.29
2018-08-03T12:15:25.729Z,28.40
2018-08-03T12:18:07.941Z,28.30
2018-08-03T12:21:24.057Z,28.05
2018-08-03T12:27:11.652Z,28.08
2018-08-03T12:29:52.335Z,28.37
2018-08-03T12:32:41.308Z,28.31
2018-08-03T12:35:18.004Z,28.27
2018-08-03T12:41:11.512Z,28.15
2018-08-03T12:46:25.574Z,27.97
2018-08-03T12:51:39.117Z,28.21
2018-08-03T12:54:14.465Z,28.10
2018-08-03T12:57:07.524Z,27.93
2018-08-03T13:02:44.586Z,27.99
2018-08-03T13:05:36.968Z,28.02
2018-08-03T13:43:57.190Z,27.84
2018-08-03T13:46:38.306Z,27.76
2018-08-03T13:49:35.849Z,27.84
2018-08-03T13:52:20.600Z,27.84
2018-08-03T13:55:30.157Z,27.85
2018-08-03T14:01:31.717Z,27.91
2018-08-03T14:04:03.018Z,27.73
2018-08-03T14:06:40.265Z,27.64
2018-08-03T14:09:19.201Z,27.72
2018-08-03T14:11:55.147Z,27.77
2018-08-03T14:14:31.915Z,27.74
2018-08-03T14:17:03.012Z,27.91
2018-08-03T14:19:42.089Z,27.98
2018-08-03T14:22:12.778Z,27.87
2018-08-03T14:24:43.637Z,27.78
2018-08-03T14:27:17.585Z,27.76
2018-08-03T14:29:48.229Z,27.63
2018-08-03T14:32:40.766Z,27.55
2018-08-03T14:35:11.441Z,27.64
2018-08-03T14:37:59.880Z,27.65
2018-08-03T14:40:34.306Z,27.57
2018-08-03T14:43:09.060Z,27.53
2018-08-03T14:45:39.961Z,27.56
2018-08-03T14:48:22.799Z,27.49
2018-08-03T14:50:54.872Z,27.42
2018-08-03T14:53:26.715Z,27.32
2018-08-03T14:56:15.668Z,27.40
2018-08-03T14:58:50.996Z,27.42
2018-08-03T15:01:27.043Z,27.40
2018-08-03T15:04:02.875Z,27.34
2018-08-03T15:06:40.225Z,27.44
2018-08-03T15:09:13.596Z,27.55
2018-08-03T15:11:46.348Z,27.59
2018-08-03T15:14:23.108Z,27.64
2018-08-03T15:17:03.570Z,27.65
2018-08-03T15:19:46.473Z,27.48
2018-08-03T15:22:24.870Z,27.45
2018-08-03T15:24:59.443Z,27.51
2018-08-03T15:27:32.854Z,27.52
2018-08-03T15:30:09.582Z,27.51
2018-08-03T15:32:58.486Z,27.50
2018-08-03T15:38:33.375Z,27.74
2018-08-03T15:41:19.126Z,27.70
2018-08-03T15:44:05.763Z,27.71
2018-08-03T15:46:43.667Z,27.52
2018-08-03T15:49:15.670Z,27.56
2018-08-03T15:51:46.054Z,27.67
2018-08-03T15:54:20.746Z,27.85
2018-08-03T15:56:52.844Z,28.03
2018-08-03T15:59:26.722Z,28.05
2018-08-03T16:02:18.029Z,27.85
2018-08-03T16:04:57.256Z,27.82
2018-08-03T16:07:42.888Z,27.82
2018-08-03T16:10:48.612Z,27.86
2018-08-03T16:13:35.255Z,28.03
2018-08-03T16:16:17.561Z,28.12
2018-08-03T16:19:02.846Z,27.99
2018-08-03T16:21:43.387Z,27.97
2018-08-03T16:24:17.347Z,27.86
2018-08-03T16:26:51.329Z,27.90
2018-08-03T16:32:12.303Z,27.94
2018-08-03T16:37:43.224Z,28.15
2018-08-03T16:40:21.348Z,28.11
2018-08-03T16:42:57.708Z,28.13
2018-08-03T16:45:33.714Z,28.11
2018-08-03T16:48:09.032Z,28.18
2018-08-03T16:50:47.313Z,28.42
2018-08-03T16:53:19.273Z,28.41
2018-08-03T16:55:49.953Z,28.09
2018-08-03T16:58:20.980Z,28.16
2018-08-03T17:00:52.212Z,28.16
2018-08-03T17:03:33.868Z,28.14
2018-08-03T17:06:06.193Z,28.09
2018-08-03T17:08:37.620Z,28.15
2018-08-03T17:11:14.825Z,28.18
2018-08-03T17:13:47.375Z,28.36
2018-08-03T17:18:55.630Z,28.14
2018-08-03T17:21:26.052Z,28.09
2018-08-03T17:23:57.861Z,28.05
2018-08-03T17:26:34.013Z,27.93
2018-08-03T17:29:08.458Z,27.88
2018-08-03T17:31:39.881Z,28.04
2018-08-03T17:34:10.539Z,28.11
2018-08-03T17:36:40.804Z,28.01
2018-08-03T17:39:13.086Z,27.82
2018-08-03T17:41:44.070Z,27.82
2018-08-03T17:44:16.534Z,27.86
2018-08-03T17:46:49.340Z,27.89
2018-08-03T17:49:24.718Z,27.79
2018-08-03T17:51:55.385Z,27.73
2018-08-03T17:54:26.169Z,27.77
2018-08-03T17:56:57.253Z,27.90
2018-08-03T17:59:28.968Z,28.13
2018-08-03T18:02:01.167Z,28.10
2018-08-03T18:04:35.743Z,27.95
2018-08-03T18:07:09.369Z,27.86
2018-08-03T18:10:24.476Z,27.58
2018-08-03T18:12:55.337Z,27.60
2018-08-03T18:15:31.382Z,27.56
2018-08-03T18:18:08.557Z,27.68
2018-08-03T18:20:42.522Z,27.67
2018-08-03T18:29:04.914Z,27.56
2018-08-03T18:31:36.351Z,27.41
2018-08-03T18:34:08.158Z,27.43
2018-08-03T18:36:41.104Z,27.39
2018-08-03T18:39:14.660Z,27.40
2018-08-03T18:41:46.144Z,27.30
2018-08-03T18:44:16.976Z,27.31
2018-08-03T18:46:47.951Z,27.33
2018-08-03T18:49:21.230Z,27.30
2018-08-03T18:51:51.984Z,27.21
2018-08-03T18:54:24.127Z,27.19
2018-08-03T18:56:54.883Z,27.14
2018-08-03T18:59:38.320Z,27.15
2018-08-03T19:02:14.989Z,27.16
2018-08-03T19:04:45.727Z,27.09
2018-08-03T19:07:16.750Z,27.07
2018-08-03T19:09:47.368Z,26.95
2018-08-03T19:12:17.915Z,26.87
2018-08-03T19:14:48.838Z,26.86
2018-08-03T19:17:27.260Z,26.85
2018-08-03T19:19:57.884Z,26.87
2018-08-03T19:22:29.295Z,26.78
2018-08-03T19:25:01.146Z,26.78
2018-08-03T19:27:31.773Z,26.67
2018-08-03T19:30:02.814Z,26.70
2018-08-03T19:32:33.157Z,26.66
2018-08-03T19:35:05.876Z,26.60
2018-08-03T19:37:39.195Z,26.67
2018-08-03T19:40:10.220Z,26.70
2018-08-03T19:42:40.844Z,26.67
2018-08-03T19:45:17.093Z,26.57
2018-08-03T19:47:48.046Z,26.42
2018-08-03T19:50:20.394Z,26.51
2018-08-03T19:52:53.892Z,26.49
2018-08-03T19:55:28.814Z,26.57
2018-08-03T19:58:07.788Z,26.47
2018-08-03T20:00:40.476Z,26.39
2018-08-03T20:03:12.812Z,26.41
2018-08-03T20:05:51.165Z,26.28
2018-08-03T20:08:24.110Z,26.23
2018-08-03T20:14:18.365Z,26.16
2018-08-03T20:16:51.214Z,26.07
2018-08-03T20:19:22.899Z,26.00
2018-08-03T20:22:34.296Z,25.83
2018-08-03T20:28:09.830Z,25.53
2018-08-03T20:41:31.745Z,25.26
2018-08-03T20:44:32.167Z,25.17
2018-08-03T21:22:44.618Z,24.25
2018-08-03T21:25:27.621Z,24.13
2018-08-03T21:28:18.554Z,24.13
2018-08-03T21:31:04.317Z,24.03
2018-08-03T21:33:54.725Z,23.94
2018-08-03T21:36:27.263Z,23.75
2018-08-03T21:41:49.268Z,23.63
2018-08-03T21:44:47.521Z,23.62
2018-08-03T22:15:32.541Z,22.99
2018-08-03T22:18:25.929Z,22.97
2018-08-03T22:21:19.472Z,22.98
2018-08-03T22:25:26.157Z,22.84
2018-08-03T22:31:35.006Z,22.62
2018-08-03T22:34:27.514Z,22.59
